Rio Mira — CUQA7 — position and weather

sailwx.info

Track history (hours):
 
Tides and Currents Weather Stations Pressure Air Temp Water Temp Dewpoint Dewpoint Depression Visibility Wind Speed Wind Dir Waves Ship Positions

Rio Mira

Last reported at 2017-Nov-17 12:11 UTC. Time now 2017-Dec-18 12:58 UTC.
Position N 37°08' W 008°32'.
Warning: this ship's position is 31 days out of date.

Length 17 m.

Type: Fishing. MMSI: 263402840.

Date/timePositionNaut miles runAvg speedWind from/ knotsBaromVisibWave heightAir tempDewpointWater temp
2017-Nov-17 12:11N 37°08' W 008°32'1 4.0
2017-Nov-17 12:00N 37°07' W 008°32'2 3.0
2017-Nov-17 11:30N 37°06' W 008°31'3 5.8
2017-Nov-17 11:00N 37°04' W 008°28'2 3.5
2017-Nov-17 10:30N 37°04' W 008°26'2 3.5
2017-Nov-17 09:58N 37°03' W 008°24'0 0.2
2017-Nov-17 09:29N 37°03' W 008°24'0 0.1
2017-Nov-17 08:59N 37°03' W 008°24'0 0.0
2017-Nov-17 08:30N 37°03' W 008°24'1 2.9
2017-Nov-17 08:00N 37°02' W 008°23'3 5.6
2017-Nov-17 07:30N 37°01' W 008°19'1 1.2
2017-Nov-17 06:52N 37°01' W 008°20'2 6.2
2017-Nov-17 06:30N 37°03' W 008°22'3 5.9
2017-Nov-17 05:59N 37°04' W 008°26'3 5.3
2017-Nov-17 05:30N 37°05' W 008°29'4 0.2
2017-Nov-16 12:04N 37°08' W 008°32'0 0.5
2017-Nov-16 12:00N 37°08' W 008°32'3 5.9
2017-Nov-16 11:30N 37°05' W 008°30'2 4.3
2017-Nov-16 11:00N 37°05' W 008°28'1 2.4
2017-Nov-16 10:30N 37°04' W 008°26'3 5.2
2017-Nov-16 10:00N 37°05' W 008°29'3 6.4
2017-Nov-16 09:29N 37°06' W 008°33'1 2.8
2017-Nov-16 09:00N 37°05' W 008°32'0 0.3
2017-Nov-16 08:26N 37°05' W 008°32'0 0.1
2017-Nov-16 07:33N 37°05' W 008°31'1 2.1
2017-Nov-16 07:14N 37°06' W 008°32'2 0.1
2017-Nov-15 12:05N 37°08' W 008°32'0 0.0
2017-Nov-15 12:00N 37°08' W 008°32'0 0.0
2017-Nov-15 11:30N 37°08' W 008°32'2 4.1
2017-Nov-15 11:00N 37°06' W 008°32'2 4.1
2017-Nov-15 10:30N 37°05' W 008°29'0 0.3
2017-Nov-15 10:00N 37°05' W 008°29'0 0.1
2017-Nov-15 09:30N 37°05' W 008°29'1 1.9
2017-Nov-15 09:00N 37°04' W 008°28'0 0.8
2017-Nov-15 08:27N 37°04' W 008°28'0 0.6
2017-Nov-15 07:53N 37°05' W 008°28'2 5.1
2017-Nov-15 07:30N 37°05' W 008°30'3 4.9
2017-Nov-15 06:58N 37°07' W 008°32'  
2017-Nov-09 14:40N 37°08' W 008°32'0 0.1
2017-Nov-09 14:27N 37°08' W 008°32'3 6.1
2017-Nov-09 14:00N 37°05' W 008°33'0 0.4
2017-Nov-09 13:30N 37°06' W 008°33'0 0.3
2017-Nov-09 13:00N 37°06' W 008°33'0 0.1
2017-Nov-09 12:30N 37°06' W 008°33'1 1.4
2017-Nov-09 11:57N 37°06' W 008°32'2 3.3
2017-Nov-09 11:30N 37°06' W 008°34'0 0.6
2017-Nov-09 11:00N 37°05' W 008°34'0 0.4
2017-Nov-09 10:30N 37°06' W 008°34'0 0.2
2017-Nov-09 09:58N 37°06' W 008°33'0 0.2
2017-Nov-09 09:30N 37°06' W 008°34'1 1.1
2017-Nov-09 09:00N 37°06' W 008°33'2 4.2
2017-Nov-09 08:29N 37°05' W 008°30'2 4.8
2017-Nov-09 08:00N 37°05' W 008°27'1 2.9
2017-Nov-09 07:30N 37°05' W 008°29'3 5.1
2017-Nov-09 06:59N 37°07' W 008°32'1 2.6
2017-Nov-09 06:30N 37°08' W 008°32'0 0.0
2017-Nov-07 13:46N 37°08' W 008°32'0 0.4
2017-Nov-07 13:30N 37°08' W 008°32'0 0.0
2017-Nov-07 13:00N 37°08' W 008°32'2 4.4
2017-Nov-07 12:29N 37°06' W 008°31'  
Track history (hours):
 
Tides and Currents Weather Stations Pressure Air Temp Water Temp Dewpoint Dewpoint Depression Visibility Wind Speed Wind Dir Waves Ship Positions

Rio Mira

Last reported at 2017-Nov-17 12:11 UTC. Time now 2017-Dec-18 12:58 UTC.
Position N 37°08' W 008°32'.
Warning: this ship's position is 31 days out of date.

Length 17 m.

Type: Fishing. MMSI: 263402840.

Date/timePositionNaut miles runAvg speedWind from/ knotsBaromVisibWave heightAir tempDewpointWater temp
2017-Nov-17 12:11N 37°08' W 008°32'1 4.0
2017-Nov-17 12:00N 37°07' W 008°32'2 3.0
2017-Nov-17 11:30N 37°06' W 008°31'3 5.8
2017-Nov-17 11:00N 37°04' W 008°28'2 3.5
2017-Nov-17 10:30N 37°04' W 008°26'2 3.5
2017-Nov-17 09:58N 37°03' W 008°24'0 0.2
2017-Nov-17 09:29N 37°03' W 008°24'0 0.1
2017-Nov-17 08:59N 37°03' W 008°24'0 0.0
2017-Nov-17 08:30N 37°03' W 008°24'1 2.9
2017-Nov-17 08:00N 37°02' W 008°23'3 5.6
2017-Nov-17 07:30N 37°01' W 008°19'1 1.2
2017-Nov-17 06:52N 37°01' W 008°20'2 6.2
2017-Nov-17 06:30N 37°03' W 008°22'3 5.9
2017-Nov-17 05:59N 37°04' W 008°26'3 5.3
2017-Nov-17 05:30N 37°05' W 008°29'4 0.2
2017-Nov-16 12:04N 37°08' W 008°32'0 0.5
2017-Nov-16 12:00N 37°08' W 008°32'3 5.9
2017-Nov-16 11:30N 37°05' W 008°30'2 4.3
2017-Nov-16 11:00N 37°05' W 008°28'1 2.4
2017-Nov-16 10:30N 37°04' W 008°26'3 5.2
2017-Nov-16 10:00N 37°05' W 008°29'3 6.4
2017-Nov-16 09:29N 37°06' W 008°33'1 2.8
2017-Nov-16 09:00N 37°05' W 008°32'0 0.3
2017-Nov-16 08:26N 37°05' W 008°32'0 0.1
2017-Nov-16 07:33N 37°05' W 008°31'1 2.1
2017-Nov-16 07:14N 37°06' W 008°32'2 0.1
2017-Nov-15 12:05N 37°08' W 008°32'0 0.0
2017-Nov-15 12:00N 37°08' W 008°32'0 0.0
2017-Nov-15 11:30N 37°08' W 008°32'2 4.1
2017-Nov-15 11:00N 37°06' W 008°32'2 4.1
2017-Nov-15 10:30N 37°05' W 008°29'0 0.3
2017-Nov-15 10:00N 37°05' W 008°29'0 0.1
2017-Nov-15 09:30N 37°05' W 008°29'1 1.9
2017-Nov-15 09:00N 37°04' W 008°28'0 0.8
2017-Nov-15 08:27N 37°04' W 008°28'0 0.6
2017-Nov-15 07:53N 37°05' W 008°28'2 5.1
2017-Nov-15 07:30N 37°05' W 008°30'3 4.9
2017-Nov-15 06:58N 37°07' W 008°32'  
2017-Nov-09 14:40N 37°08' W 008°32'0 0.1
2017-Nov-09 14:27N 37°08' W 008°32'3 6.1
2017-Nov-09 14:00N 37°05' W 008°33'0 0.4
2017-Nov-09 13:30N 37°06' W 008°33'0 0.3
2017-Nov-09 13:00N 37°06' W 008°33'0 0.1
2017-Nov-09 12:30N 37°06' W 008°33'1 1.4
2017-Nov-09 11:57N 37°06' W 008°32'2 3.3
2017-Nov-09 11:30N 37°06' W 008°34'0 0.6
2017-Nov-09 11:00N 37°05' W 008°34'0 0.4
2017-Nov-09 10:30N 37°06' W 008°34'0 0.2
2017-Nov-09 09:58N 37°06' W 008°33'0 0.2
2017-Nov-09 09:30N 37°06' W 008°34'1 1.1
2017-Nov-09 09:00N 37°06' W 008°33'2 4.2
2017-Nov-09 08:29N 37°05' W 008°30'2 4.8
2017-Nov-09 08:00N 37°05' W 008°27'1 2.9
2017-Nov-09 07:30N 37°05' W 008°29'3 5.1
2017-Nov-09 06:59N 37°07' W 008°32'1 2.6
2017-Nov-09 06:30N 37°08' W 008°32'0 0.0
2017-Nov-07 13:46N 37°08' W 008°32'0 0.4
2017-Nov-07 13:30N 37°08' W 008°32'0 0.0
2017-Nov-07 13:00N 37°08' W 008°32'2 4.4
2017-Nov-07 12:29N 37°06' W 008°31'  

Dump ship's entire track history